createdAt,value
2018-11-22T00:01:34.298Z,8.90
2018-11-22T00:04:02.731Z,8.94
2018-11-22T00:06:31.162Z,8.97
2018-11-22T00:08:59.658Z,8.95
2018-11-22T00:11:28.111Z,8.95
2018-11-22T00:13:56.588Z,8.95
2018-11-22T00:16:25.026Z,8.89
2018-11-22T00:18:53.472Z,8.92
2018-11-22T00:21:22.028Z,8.93
2018-11-22T00:23:50.460Z,8.98
2018-11-22T00:26:18.962Z,8.96
2018-11-22T00:28:47.433Z,8.99
2018-11-22T00:31:15.815Z,9.00
2018-11-22T00:33:44.390Z,9.02
2018-11-22T00:36:12.923Z,9.03
2018-11-22T00:38:41.601Z,9.07
2018-11-22T00:41:09.960Z,9.08
2018-11-22T00:43:38.436Z,9.11
2018-11-22T00:46:06.892Z,9.11
2018-11-22T00:48:35.391Z,9.12
2018-11-22T00:51:04.093Z,9.14
2018-11-22T00:53:32.569Z,9.12
2018-11-22T00:56:01.084Z,9.14
2018-11-22T00:58:29.515Z,9.12
2018-11-22T01:00:58.025Z,9.12
2018-11-22T01:03:26.550Z,9.15
2018-11-22T01:05:54.985Z,9.19
2018-11-22T01:08:23.467Z,9.24
2018-11-22T01:10:51.980Z,9.30
2018-11-22T01:13:20.472Z,9.29
2018-11-22T01:15:49.037Z,9.29
2018-11-22T01:18:17.521Z,9.26
2018-11-22T01:20:46.063Z,9.26
2018-11-22T01:23:14.543Z,9.23
2018-11-22T01:25:43.074Z,9.20
2018-11-22T01:28:11.627Z,9.20
2018-11-22T01:30:40.041Z,9.21
2018-11-22T01:33:08.539Z,9.22
2018-11-22T01:35:36.972Z,9.23
2018-11-22T01:38:05.546Z,9.26
2018-11-22T01:40:34.017Z,9.30
2018-11-22T01:43:02.542Z,9.33
2018-11-22T01:45:31.033Z,9.36
2018-11-22T01:47:59.473Z,9.37
2018-11-22T01:50:27.960Z,9.38
2018-11-22T01:52:56.489Z,9.38
2018-11-22T01:55:24.876Z,9.38
2018-11-22T01:57:53.363Z,9.33
2018-11-22T02:00:24.403Z,9.30
2018-11-22T02:02:52.913Z,9.34
2018-11-22T02:05:22.739Z,9.33
2018-11-22T02:07:51.244Z,9.29
2018-11-22T02:10:21.123Z,9.24
2018-11-22T02:12:49.683Z,9.21
2018-11-22T02:15:19.653Z,9.17
2018-11-22T02:17:48.283Z,9.14
2018-11-22T02:20:18.141Z,9.11
2018-11-22T02:22:46.693Z,9.09
2018-11-22T02:25:17.653Z,9.07
2018-11-22T02:27:44.749Z,9.00
2018-11-22T02:30:15.694Z,9.00
2018-11-22T02:32:45.387Z,9.00
2018-11-22T02:35:14.087Z,9.00
2018-11-22T02:37:42.982Z,9.00
2018-11-22T02:40:13.032Z,8.99
2018-11-22T02:42:42.574Z,8.91
2018-11-22T02:45:13.537Z,8.87
2018-11-22T02:47:42.204Z,8.86
2018-11-22T02:50:15.303Z,8.88
2018-11-22T02:52:43.919Z,8.88
2018-11-22T02:55:12.447Z,8.85
2018-11-22T02:57:41.520Z,8.81
2018-11-22T03:00:32.988Z,8.81
2018-11-22T03:03:01.650Z,8.79
2018-11-22T03:05:30.145Z,8.80
2018-11-22T03:07:58.810Z,8.81
2018-11-22T03:10:27.528Z,8.85
2018-11-22T03:12:56.035Z,8.89
2018-11-22T03:15:24.589Z,8.91
2018-11-22T03:17:53.041Z,8.87
2018-11-22T03:20:21.549Z,8.89
2018-11-22T03:22:50.102Z,8.92
2018-11-22T03:25:19.402Z,8.94
2018-11-22T03:27:48.535Z,8.96
2018-11-22T03:30:18.523Z,8.96
2018-11-22T03:32:47.020Z,8.95
2018-11-22T03:35:19.904Z,9.00
2018-11-22T03:37:48.385Z,9.05
2018-11-22T03:40:18.291Z,9.06
2018-11-22T03:42:46.788Z,9.05
2018-11-22T03:45:16.033Z,9.06
2018-11-22T03:47:44.879Z,9.07
2018-11-22T03:50:15.584Z,9.07
2018-11-22T03:52:44.812Z,9.03
2018-11-22T03:55:14.373Z,9.07
2018-11-22T03:57:43.216Z,9.06
2018-11-22T04:00:18.451Z,9.04
2018-11-22T04:02:47.275Z,9.05
2018-11-22T04:05:17.193Z,9.02
2018-11-22T04:07:45.606Z,9.02
2018-11-22T04:10:31.464Z,9.00
2018-11-22T04:12:59.939Z,8.99
2018-11-22T04:15:28.488Z,8.99
2018-11-22T04:17:57.030Z,9.02
2018-11-22T04:20:27.115Z,8.99
2018-11-22T04:22:55.520Z,8.99
2018-11-22T04:25:24.345Z,8.97
2018-11-22T04:27:52.783Z,8.98
2018-11-22T04:30:26.106Z,8.97
2018-11-22T04:32:54.705Z,8.98
2018-11-22T04:35:23.709Z,8.99
2018-11-22T04:37:52.352Z,8.92
2018-11-22T04:40:22.121Z,8.92
2018-11-22T04:42:51.365Z,8.89
2018-11-22T04:45:20.292Z,8.89
2018-11-22T04:47:49.659Z,8.95
2018-11-22T04:50:19.769Z,8.96
2018-11-22T04:52:48.201Z,8.94
2018-11-22T04:55:16.926Z,8.92
2018-11-22T04:57:45.515Z,8.90
2018-11-22T05:00:22.276Z,8.89
2018-11-22T05:02:50.775Z,8.88
2018-11-22T05:05:20.780Z,8.88
2018-11-22T05:07:49.248Z,8.89
2018-11-22T05:10:19.542Z,8.89
2018-11-22T05:12:49.529Z,8.88
2018-11-22T05:15:19.488Z,8.87
2018-11-22T05:17:48.014Z,8.88
2018-11-22T05:20:17.856Z,8.82
2018-11-22T05:22:46.808Z,8.84
2018-11-22T05:25:15.486Z,8.85
2018-11-22T05:27:44.004Z,8.85
2018-11-22T05:30:15.045Z,8.85
2018-11-22T05:32:43.661Z,8.84
2018-11-22T05:35:13.289Z,8.80
2018-11-22T05:37:41.806Z,8.76
2018-11-22T05:40:17.575Z,8.82
2018-11-22T05:42:46.077Z,8.78
2018-11-22T05:45:17.974Z,8.77
2018-11-22T05:47:45.289Z,8.78
2018-11-22T05:50:18.234Z,8.79
2018-11-22T05:52:47.392Z,8.77
2018-11-22T05:55:16.226Z,8.78
2018-11-22T05:57:44.980Z,8.77
2018-11-22T06:00:19.626Z,8.77
2018-11-22T06:02:48.045Z,8.70
2018-11-22T06:05:18.173Z,8.74
2018-11-22T06:07:46.743Z,8.68
2018-11-22T06:10:17.735Z,8.68
2018-11-22T06:12:46.664Z,8.71
2018-11-22T06:15:15.669Z,8.70
2018-11-22T06:17:45.593Z,8.73
2018-11-22T06:20:15.642Z,8.75
2018-11-22T06:22:44.692Z,8.72
2018-11-22T06:25:14.998Z,8.72
2018-11-22T06:27:43.461Z,8.72
2018-11-22T06:30:17.295Z,8.70
2018-11-22T06:32:47.411Z,8.67
2018-11-22T06:35:16.099Z,8.69
2018-11-22T12:17:52.106Z,10.96
2018-11-22T12:20:21.164Z,10.92
2018-11-22T12:22:52.147Z,10.99
2018-11-22T12:25:22.465Z,11.04
2018-11-22T12:27:55.710Z,11.01
2018-11-22T12:30:26.447Z,11.10
2018-11-22T12:33:00.229Z,11.16
2018-11-22T12:35:34.422Z,11.17
2018-11-22T12:38:08.304Z,11.26
2018-11-22T12:40:37.606Z,11.27
2018-11-22T12:43:05.692Z,11.29
2018-11-22T12:45:34.364Z,11.30
2018-11-22T12:48:04.123Z,11.32
2018-11-22T12:50:33.896Z,11.37
2018-11-22T12:53:02.660Z,10.24
2018-11-22T12:55:31.340Z,11.47
2018-11-22T12:58:00.319Z,11.55
2018-11-22T13:00:29.028Z,11.63
2018-11-22T13:02:57.729Z,11.74
2018-11-22T13:05:27.409Z,11.78
2018-11-22T13:07:56.001Z,11.70
2018-11-22T13:10:25.020Z,11.70
2018-11-22T13:12:53.591Z,11.70
2018-11-22T13:15:22.982Z,11.65
2018-11-22T13:17:51.686Z,11.65
2018-11-22T13:20:21.646Z,11.62
2018-11-22T13:22:50.255Z,11.63
2018-11-22T13:25:24.256Z,11.57
2018-11-22T13:27:52.971Z,11.48
2018-11-22T13:30:23.096Z,11.43
2018-11-22T13:32:52.189Z,11.35
2018-11-22T13:35:21.099Z,11.21
2018-11-22T13:37:51.024Z,11.17
2018-11-22T13:40:19.657Z,11.15
2018-11-22T13:42:49.107Z,11.14
2018-11-22T13:45:20.198Z,11.16
2018-11-22T13:47:49.681Z,11.07
2018-11-22T13:50:23.087Z,11.05
2018-11-22T13:52:53.195Z,11.03
2018-11-22T13:55:21.849Z,11.08
2018-11-22T13:57:50.709Z,11.10
2018-11-22T14:00:23.041Z,11.14
2018-11-22T14:02:54.091Z,11.24
2018-11-22T14:05:22.951Z,11.30
2018-11-22T14:07:51.885Z,11.33
2018-11-22T14:10:21.343Z,11.32
2018-11-22T14:12:50.540Z,11.30
2018-11-22T14:15:20.717Z,11.32
2018-11-22T14:17:51.027Z,11.30
2018-11-22T14:20:21.135Z,11.27
2018-11-22T14:22:49.870Z,11.19
2018-11-22T14:25:18.717Z,11.16
2018-11-22T14:27:48.544Z,11.06
2018-11-22T14:30:21.487Z,11.03
2018-11-22T14:32:51.162Z,11.05
2018-11-22T14:35:20.709Z,11.08
2018-11-22T14:37:49.184Z,11.10
2018-11-22T14:40:23.349Z,11.08
2018-11-22T14:42:52.947Z,11.11
2018-11-22T14:45:23.016Z,11.15
2018-11-22T14:47:52.608Z,11.14
2018-11-22T14:50:23.056Z,11.20
2018-11-22T14:52:58.275Z,11.15
2018-11-22T14:55:26.877Z,11.18
2018-11-22T14:57:55.617Z,11.16
2018-11-22T15:00:24.274Z,11.08
2018-11-22T15:02:52.794Z,11.02
2018-11-22T15:05:21.325Z,10.93
2018-11-22T15:07:49.932Z,10.84
2018-11-22T15:10:18.671Z,10.67
2018-11-22T15:12:48.031Z,10.65
2018-11-22T15:15:18.826Z,10.63
2018-11-22T15:17:47.369Z,10.62
2018-11-22T15:20:17.594Z,10.61
2018-11-22T15:22:47.051Z,10.62
2018-11-22T15:25:18.953Z,10.60
2018-11-22T15:27:47.832Z,10.57
2018-11-22T15:30:18.123Z,10.59
2018-11-22T15:32:46.661Z,10.56
2018-11-22T15:35:18.835Z,10.51
2018-11-22T15:37:47.777Z,10.46
2018-11-22T15:40:19.998Z,10.46
2018-11-22T15:42:49.889Z,10.45
2018-11-22T15:45:19.974Z,10.42
2018-11-22T15:47:48.687Z,10.35
2018-11-22T15:50:18.555Z,10.30
2018-11-22T15:52:47.250Z,10.30
2018-11-22T15:55:20.816Z,10.25
2018-11-22T15:57:46.315Z,10.23
2018-11-22T16:00:18.255Z,10.22
2018-11-22T16:02:47.523Z,10.18
2018-11-22T16:05:16.655Z,10.16
2018-11-22T16:07:45.328Z,10.13
2018-11-22T16:10:16.761Z,10.13
2018-11-22T16:12:45.953Z,10.14
2018-11-22T16:15:22.247Z,10.17
2018-11-22T16:17:50.887Z,10.16
2018-11-22T16:20:19.538Z,10.16
2018-11-22T16:22:48.150Z,10.13
2018-11-22T16:25:16.721Z,10.03
2018-11-22T16:27:45.335Z,10.00
2018-11-22T16:30:16.072Z,9.95
2018-11-22T16:32:45.024Z,9.89
2018-11-22T16:35:14.664Z,9.79
2018-11-22T16:37:44.361Z,9.74
2018-11-22T16:40:15.170Z,9.69
2018-11-22T16:42:46.555Z,9.67
2018-11-22T16:45:22.541Z,9.61
2018-11-22T16:47:51.344Z,9.55
2018-11-22T16:50:24.268Z,9.47
2018-11-22T16:52:53.167Z,9.45
2018-11-22T16:55:22.550Z,9.40
2018-11-22T16:57:52.082Z,9.31
2018-11-22T17:00:25.931Z,9.24
2018-11-22T17:02:58.341Z,9.22
2018-11-22T17:05:27.167Z,9.20
2018-11-22T17:07:56.215Z,9.17
2018-11-22T17:10:26.207Z,9.12
2018-11-22T17:12:56.255Z,9.11
2018-11-22T17:15:26.618Z,9.09
2018-11-22T17:17:56.254Z,9.08
2018-11-22T17:20:26.074Z,9.02
2018-11-22T17:22:55.157Z,8.99
2018-11-22T17:25:25.241Z,8.97
2018-11-22T17:27:56.297Z,8.96
2018-11-22T17:30:27.543Z,8.91
2018-11-22T17:32:56.210Z,8.88
2018-11-22T17:35:26.106Z,8.87
2018-11-22T17:37:56.164Z,6.75
2018-11-22T17:40:26.114Z,8.83
2018-11-22T17:42:54.728Z,8.80
2018-11-22T17:45:30.726Z,8.79
2018-11-22T17:47:59.380Z,8.77
2018-11-22T17:50:31.648Z,8.72
2018-11-22T17:53:00.617Z,8.72
2018-11-22T17:55:30.199Z,8.70
2018-11-22T17:57:58.843Z,8.68
2018-11-22T18:00:34.091Z,8.64
2018-11-22T18:03:04.019Z,8.60
2018-11-22T18:05:32.820Z,8.56
2018-11-22T18:08:01.514Z,8.55
2018-11-22T18:10:32.845Z,7.73
2018-11-22T18:13:01.586Z,8.55
2018-11-22T18:15:31.996Z,8.52
2018-11-22T18:18:00.695Z,8.48
2018-11-22T18:20:30.973Z,8.44
2018-11-22T18:23:00.612Z,8.41
2018-11-22T18:25:30.567Z,8.38
2018-11-22T18:27:59.349Z,8.37
2018-11-22T18:30:30.414Z,8.33
2018-11-22T18:33:00.864Z,8.31
2018-11-22T18:35:29.807Z,8.29
2018-11-22T18:37:58.457Z,8.25
2018-11-22T18:40:28.816Z,8.24
2018-11-22T18:42:58.907Z,8.20
2018-11-22T18:45:38.396Z,8.16
2018-11-22T18:48:08.400Z,8.12
2018-11-22T18:50:37.636Z,8.05
2018-11-22T18:53:07.893Z,8.04
2018-11-22T18:55:36.666Z,8.00
2018-11-22T18:58:05.821Z,8.00
2018-11-22T19:00:38.609Z,8.01
2018-11-22T19:03:10.235Z,7.98
2018-11-22T19:05:39.010Z,7.94
2018-11-22T19:08:07.778Z,7.91
2018-11-22T19:10:37.813Z,7.90
2018-11-22T19:13:07.836Z,7.90
2018-11-22T19:15:37.994Z,7.93
2018-11-22T19:18:08.134Z,7.94
2018-11-22T19:20:39.395Z,7.91
2018-11-22T19:23:08.959Z,7.84
2018-11-22T19:25:37.528Z,7.80
2018-11-22T19:28:06.932Z,7.78
2018-11-22T19:30:38.810Z,7.74
2018-11-22T19:33:08.899Z,7.74
2018-11-22T19:35:39.471Z,7.67
2018-11-22T19:38:08.057Z,7.66
2018-11-22T19:40:37.936Z,7.66
2018-11-22T19:43:08.510Z,7.62
2018-11-22T19:45:39.852Z,7.62
2018-11-22T19:48:08.880Z,7.59
2018-11-22T19:50:37.551Z,7.59
2018-11-22T19:53:07.633Z,7.57
2018-11-22T19:55:37.475Z,7.58
2018-11-22T19:58:07.773Z,7.54
2018-11-22T20:00:36.328Z,7.50
2018-11-22T20:03:06.489Z,7.51
2018-11-22T20:05:37.531Z,7.49
2018-11-22T20:08:08.149Z,7.47
2018-11-22T20:10:39.213Z,7.43
2018-11-22T20:13:07.805Z,7.42
2018-11-22T20:15:36.435Z,7.40
2018-11-22T20:18:06.210Z,7.39
2018-11-22T20:20:34.793Z,7.35
2018-11-22T20:23:03.391Z,7.35
2018-11-22T20:25:32.070Z,7.34
2018-11-22T20:28:00.770Z,7.34
2018-11-22T20:30:31.641Z,7.32
2018-11-22T20:33:00.213Z,7.30
2018-11-22T20:35:29.325Z,7.28
2018-11-22T20:37:57.923Z,7.26
2018-11-22T20:40:27.528Z,7.26
2018-11-22T20:42:56.282Z,7.23
2018-11-22T20:45:25.915Z,7.20
2018-11-22T20:47:59.189Z,7.19
2018-11-22T20:50:29.390Z,7.19
2018-11-22T20:52:58.078Z,7.13
2018-11-22T20:55:29.060Z,7.14
2018-11-22T20:57:58.917Z,7.12
2018-11-22T21:00:29.164Z,7.12
2018-11-22T21:02:57.968Z,7.11
2018-11-22T21:05:27.410Z,7.09
2018-11-22T21:07:56.157Z,7.08
2018-11-22T21:10:26.722Z,7.06
2018-11-22T21:12:55.351Z,7.04
2018-11-22T21:15:26.152Z,7.02
2018-11-22T21:17:56.611Z,7.01
2018-11-22T21:20:27.813Z,6.99
2018-11-22T21:22:56.511Z,6.98
2018-11-22T21:25:25.381Z,6.96
2018-11-22T21:27:54.136Z,6.98
2018-11-22T21:30:29.835Z,6.95
2018-11-22T21:32:59.416Z,6.94
2018-11-22T21:35:28.163Z,6.90
2018-11-22T21:37:57.945Z,6.91
2018-11-22T21:40:27.411Z,6.90
2018-11-22T21:42:56.186Z,6.89
2018-11-22T21:45:25.811Z,6.86
2018-11-22T21:47:54.568Z,6.84
2018-11-22T21:50:24.654Z,6.86
2018-11-22T21:52:53.516Z,6.78
2018-11-22T21:55:23.430Z,6.81
2018-11-22T21:57:52.930Z,6.81
2018-11-22T22:00:38.424Z,6.80
2018-11-22T22:03:08.215Z,6.81
2018-11-22T22:05:36.826Z,6.80
2018-11-22T22:08:05.553Z,6.79
2018-11-22T22:10:34.094Z,6.78
2018-11-22T22:13:02.609Z,6.73
2018-11-22T22:15:32.541Z,6.74
2018-11-22T22:18:01.104Z,6.74
2018-11-22T22:20:31.198Z,6.76
2018-11-22T22:22:59.882Z,6.76
2018-11-22T22:25:30.309Z,6.76
2018-11-22T22:27:59.225Z,6.76
2018-11-22T22:30:32.126Z,6.74
2018-11-22T22:33:02.328Z,6.72
2018-11-22T22:35:30.858Z,6.72
2018-11-22T22:37:59.366Z,6.71
2018-11-22T22:40:28.686Z,6.71
2018-11-22T22:42:57.906Z,6.69
2018-11-22T22:45:27.449Z,6.69
2018-11-22T22:47:55.995Z,6.68
2018-11-22T22:50:26.048Z,6.66
2018-11-22T22:52:55.925Z,6.64
2018-11-22T22:55:27.167Z,6.65
2018-11-22T22:57:56.318Z,6.63
2018-11-22T23:00:31.373Z,6.61
2018-11-22T23:03:03.317Z,6.61
2018-11-22T23:05:32.311Z,6.58
2018-11-22T23:08:00.897Z,6.58
2018-11-22T23:10:29.461Z,6.60
2018-11-22T23:12:58.940Z,6.56
2018-11-22T23:15:29.533Z,6.54
2018-11-22T23:17:58.164Z,6.52
2018-11-22T23:20:29.298Z,6.52
2018-11-22T23:22:57.834Z,6.51
2018-11-22T23:25:27.405Z,6.52
2018-11-22T23:27:55.943Z,6.51
2018-11-22T23:30:30.122Z,6.53
2018-11-22T23:33:00.230Z,6.51
2018-11-22T23:35:29.031Z,6.49
2018-11-22T23:37:57.954Z,6.47
2018-11-22T23:40:29.905Z,6.49
2018-11-22T23:42:59.117Z,6.52
2018-11-22T23:45:29.694Z,6.50
2018-11-22T23:47:59.207Z,6.45
2018-11-22T23:50:29.696Z,6.48
2018-11-22T23:53:01.646Z,6.49
2018-11-22T23:55:31.308Z,6.46
2018-11-22T23:58:01.050Z,6.45
